sensor_id;sensor_type;location;lat;lon;timestamp;pressure;altitude;pressure_sealevel;temperature;humidity
64354;BME280;50681;53.334;-6.536;2023-01-29T00:01:44;102503.59;;;4.33;100.00
64354;BME280;50681;53.334;-6.536;2023-01-29T00:04:10;102499.28;;;4.32;100.00
64354;BME280;50681;53.334;-6.536;2023-01-29T00:06:35;102475.16;;;4.18;100.00
64354;BME280;50681;53.334;-6.536;2023-01-29T00:09:01;102476.34;;;4.16;100.00
64354;BME280;50681;53.334;-6.536;2023-01-29T00:11:26;102498.66;;;4.30;100.00
64354;BME280;50681;53.334;-6.536;2023-01-29T00:13:52;102500.31;;;4.31;100.00
64354;BME280;50681;53.334;-6.536;2023-01-29T00:16:18;102493.88;;;4.18;100.00
64354;BME280;50681;53.334;-6.536;2023-01-29T00:18:44;102478.63;;;4.12;100.00
64354;BME280;50681;53.334;-6.536;2023-01-29T00:21:11;102493.06;;;4.24;100.00
64354;BME280;50681;53.334;-6.536;2023-01-29T00:23:37;102497.81;;;4.22;100.00
64354;BME280;50681;53.334;-6.536;2023-01-29T00:26:02;102485.84;;;4.18;100.00
64354;BME280;50681;53.334;-6.536;2023-01-29T00:28:28;102494.50;;;4.20;100.00
64354;BME280;50681;53.334;-6.536;2023-01-29T00:30:53;102501.88;;;4.18;100.00
64354;BME280;50681;53.334;-6.536;2023-01-29T00:33:19;102498.59;;;4.16;100.00
64354;BME280;50681;53.334;-6.536;2023-01-29T00:35:44;102479.19;;;4.01;100.00
64354;BME280;50681;53.334;-6.536;2023-01-29T00:38:10;102510.09;;;4.17;100.00
64354;BME280;50681;53.334;-6.536;2023-01-29T00:40:38;102491.53;;;4.02;100.00
64354;BME280;50681;53.334;-6.536;2023-01-29T00:43:22;102496.03;;;4.01;100.00
64354;BME280;50681;53.334;-6.536;2023-01-29T00:46:06;102506.38;;;4.11;100.00
64354;BME280;50681;53.334;-6.536;2023-01-29T00:48:32;102489.88;;;4.01;100.00
64354;BME280;50681;53.334;-6.536;2023-01-29T00:50:58;102480.81;;;4.02;100.00
64354;BME280;50681;53.334;-6.536;2023-01-29T00:53:23;102483.72;;;4.07;100.00
64354;BME280;50681;53.334;-6.536;2023-01-29T00:55:49;102492.00;;;4.12;100.00
64354;BME280;50681;53.334;-6.536;2023-01-29T00:58:14;102464.97;;;4.00;100.00
64354;BME280;50681;53.334;-6.536;2023-01-29T01:00:46;102469.34;;;4.08;100.00
64354;BME280;50681;53.334;-6.536;2023-01-29T01:03:12;102476.34;;;4.16;100.00
64354;BME280;50681;53.334;-6.536;2023-01-29T01:05:37;102491.19;;;4.18;100.00
64354;BME280;50681;53.334;-6.536;2023-01-29T01:08:03;102459.44;;;4.02;100.00
64354;BME280;50681;53.334;-6.536;2023-01-29T01:10:57;102458.56;;;3.94;100.00
64354;BME280;50681;53.334;-6.536;2023-01-29T01:13:23;102478.84;;;4.17;100.00
64354;BME280;50681;53.334;-6.536;2023-01-29T01:15:48;102439.66;;;3.96;100.00
64354;BME280;50681;53.334;-6.536;2023-01-29T01:18:14;102468.09;;;4.10;100.00
64354;BME280;50681;53.334;-6.536;2023-01-29T01:20:40;102457.63;;;4.09;100.00
64354;BME280;50681;53.334;-6.536;2023-01-29T01:23:05;102457.22;;;4.12;100.00
64354;BME280;50681;53.334;-6.536;2023-01-29T01:25:31;102462.81;;;4.17;100.00
64354;BME280;50681;53.334;-6.536;2023-01-29T01:27:57;102468.56;;;4.21;100.00
64354;BME280;50681;53.334;-6.536;2023-01-29T01:30:23;102460.53;;;4.14;100.00
64354;BME280;50681;53.334;-6.536;2023-01-29T01:32:49;102462.56;;;4.12;100.00
64354;BME280;50681;53.334;-6.536;2023-01-29T01:35:15;102441.69;;;3.94;100.00
64354;BME280;50681;53.334;-6.536;2023-01-29T01:37:41;102440.84;;;3.87;100.00
64354;BME280;50681;53.334;-6.536;2023-01-29T01:40:19;102406.41;;;3.63;100.00
64354;BME280;50681;53.334;-6.536;2023-01-29T01:42:49;102432.59;;;3.81;100.00
64354;BME280;50681;53.334;-6.536;2023-01-29T01:45:33;102443.66;;;3.78;100.00
64354;BME280;50681;53.334;-6.536;2023-01-29T01:50:53;102446.56;;;3.77;100.00
64354;BME280;50681;53.334;-6.536;2023-01-29T01:54:11;102469.03;;;3.89;100.00
64354;BME280;50681;53.334;-6.536;2023-01-29T01:56:40;102469.44;;;3.93;100.00
64354;BME280;50681;53.334;-6.536;2023-01-29T01:59:12;102437.69;;;3.76;100.00
64354;BME280;50681;53.334;-6.536;2023-01-29T02:01:41;102443.72;;;3.85;100.00
64354;BME280;50681;53.334;-6.536;2023-01-29T02:04:17;102451.59;;;3.93;100.00
64354;BME280;50681;53.334;-6.536;2023-01-29T02:07:05;102464.16;;;4.00;100.00
64354;BME280;50681;53.334;-6.536;2023-01-29T02:09:52;102436.72;;;3.84;100.00
64354;BME280;50681;53.334;-6.536;2023-01-29T02:12:20;102449.53;;;3.95;100.00
64354;BME280;50681;53.334;-6.536;2023-01-29T02:14:46;102422.69;;;3.75;100.00
64354;BME280;50681;53.334;-6.536;2023-01-29T02:17:14;102454.09;;;4.02;100.00
64354;BME280;50681;53.334;-6.536;2023-01-29T02:19:47;102456.13;;;4.00;100.00
64354;BME280;50681;53.334;-6.536;2023-01-29T02:22:41;102424.38;;;3.83;100.00
64354;BME280;50681;53.334;-6.536;2023-01-29T02:30:53;102447.56;;;4.11;100.00
64354;BME280;50681;53.334;-6.536;2023-01-29T02:41:42;102389.84;;;3.81;100.00
64354;BME280;50681;53.334;-6.536;2023-01-29T02:47:04;102418.09;;;3.97;100.00
64354;BME280;50681;53.334;-6.536;2023-01-29T02:52:21;102402.22;;;3.89;100.00
64354;BME280;50681;53.334;-6.536;2023-01-29T02:55:04;102401.81;;;3.92;100.00
64354;BME280;50681;53.334;-6.536;2023-01-29T02:57:36;102383.88;;;3.79;100.00
64354;BME280;50681;53.334;-6.536;2023-01-29T03:00:16;102389.47;;;3.91;100.00
64354;BME280;50681;53.334;-6.536;2023-01-29T03:02:57;102393.56;;;3.87;100.00
64354;BME280;50681;53.334;-6.536;2023-01-29T03:05:34;102353.44;;;3.74;100.00
64354;BME280;50681;53.334;-6.536;2023-01-29T03:08:05;102379.19;;;3.88;100.00
64354;BME280;50681;53.334;-6.536;2023-01-29T03:10:39;102344.50;;;3.60;100.00
64354;BME280;50681;53.334;-6.536;2023-01-29T03:13:18;102377.53;;;3.87;100.00
64354;BME280;50681;53.334;-6.536;2023-01-29T03:15:48;102355.66;;;3.70;100.00
64354;BME280;50681;53.334;-6.536;2023-01-29T03:18:23;102355.00;;;3.61;100.00
64354;BME280;50681;53.334;-6.536;2023-01-29T03:20:57;102361.03;;;3.77;100.00
64354;BME280;50681;53.334;-6.536;2023-01-29T03:23:31;102333.88;;;3.66;100.00
64354;BME280;50681;53.334;-6.536;2023-01-29T03:26:20;102340.47;;;3.77;100.00
64354;BME280;50681;53.334;-6.536;2023-01-29T03:29:06;102349.53;;;3.76;100.00
64354;BME280;50681;53.334;-6.536;2023-01-29T03:31:52;102333.06;;;3.73;100.00
64354;BME280;50681;53.334;-6.536;2023-01-29T03:34:45;102359.47;;;3.89;100.00
64354;BME280;50681;53.334;-6.536;2023-01-29T03:37:24;102336.38;;;3.75;100.00
64354;BME280;50681;53.334;-6.536;2023-01-29T03:39:51;102341.34;;;3.85;100.00
64354;BME280;50681;53.334;-6.536;2023-01-29T03:42:24;102326.31;;;3.77;100.00
64354;BME280;50681;53.334;-6.536;2023-01-29T03:44:57;102342.34;;;3.83;100.00
64354;BME280;50681;53.334;-6.536;2023-01-29T03:47:42;102279.16;;;3.56;100.00
64354;BME280;50681;53.334;-6.536;2023-01-29T03:50:33;102314.56;;;3.71;100.00
64354;BME280;50681;53.334;-6.536;2023-01-29T03:55:37;102303.03;;;3.64;100.00
64354;BME280;50681;53.334;-6.536;2023-01-29T03:59:10;102310.00;;;3.65;100.00
64354;BME280;50681;53.334;-6.536;2023-01-29T04:01:13;102313.69;;;3.57;100.00
64354;BME280;50681;53.334;-6.536;2023-01-29T04:04:00;102287.09;;;3.35;100.00
64354;BME280;50681;53.334;-6.536;2023-01-29T04:06:32;102301.63;;;3.33;100.00
64354;BME280;50681;53.334;-6.536;2023-01-29T04:09:14;102284.69;;;3.12;100.00
64354;BME280;50681;53.334;-6.536;2023-01-29T04:11:45;102284.19;;;3.02;100.00
64354;BME280;50681;53.334;-6.536;2023-01-29T04:14:12;102273.25;;;2.90;100.00
64354;BME280;50681;53.334;-6.536;2023-01-29T04:16:47;102250.94;;;2.69;100.00
64354;BME280;50681;53.334;-6.536;2023-01-29T04:19:14;102286.59;;;2.90;100.00
64354;BME280;50681;53.334;-6.536;2023-01-29T04:21:40;102259.75;;;2.70;100.00
64354;BME280;50681;53.334;-6.536;2023-01-29T04:24:06;102271.66;;;2.67;100.00
64354;BME280;50681;53.334;-6.536;2023-01-29T04:37:43;102280.88;;;2.64;100.00
64354;BME280;50681;53.334;-6.536;2023-01-29T04:46:15;102266.34;;;2.45;100.00
64354;BME280;50681;53.334;-6.536;2023-01-29T04:54:03;102236.16;;;2.16;100.00
64354;BME280;50681;53.334;-6.536;2023-01-29T04:59:18;102268.97;;;2.39;100.00
64354;BME280;50681;53.334;-6.536;2023-01-29T05:01:46;102273.91;;;2.42;100.00
64354;BME280;50681;53.334;-6.536;2023-01-29T05:04:14;102272.31;;;2.47;100.00
64354;BME280;50681;53.334;-6.536;2023-01-29T05:06:41;102279.16;;;2.57;100.00
64354;BME280;50681;53.334;-6.536;2023-01-29T05:09:08;102277.38;;;2.64;100.00
64354;BME280;50681;53.334;-6.536;2023-01-29T05:11:34;102261.38;;;2.64;100.00
64354;BME280;50681;53.334;-6.536;2023-01-29T05:14:01;102243.72;;;2.63;100.00
64354;BME280;50681;53.334;-6.536;2023-01-29T05:16:36;102268.31;;;2.87;100.00
64354;BME280;50681;53.334;-6.536;2023-01-29T05:19:08;102245.72;;;2.83;100.00
64354;BME280;50681;53.334;-6.536;2023-01-29T05:21:34;102264.09;;;2.99;100.00
64354;BME280;50681;53.334;-6.536;2023-01-29T05:24:32;102256.94;;;3.06;100.00
64354;BME280;50681;53.334;-6.536;2023-01-29T05:26:59;102241.94;;;3.05;100.00
64354;BME280;50681;53.334;-6.536;2023-01-29T05:29:45;102214.41;;;2.98;100.00
64354;BME280;50681;53.334;-6.536;2023-01-29T05:32:11;102216.50;;;3.09;100.00
64354;BME280;50681;53.334;-6.536;2023-01-29T05:34:36;102232.19;;;3.26;100.00
64354;BME280;50681;53.334;-6.536;2023-01-29T05:37:02;102239.66;;;3.37;100.00
64354;BME280;50681;53.334;-6.536;2023-01-29T05:39:27;102223.78;;;3.29;100.00
64354;BME280;50681;53.334;-6.536;2023-01-29T05:41:53;102205.50;;;3.26;100.00
64354;BME280;50681;53.334;-6.536;2023-01-29T05:44:18;102208.63;;;3.36;100.00
64354;BME280;50681;53.334;-6.536;2023-01-29T05:46:44;102204.31;;;3.35;100.00
64354;BME280;50681;53.334;-6.536;2023-01-29T05:49:10;102217.31;;;3.52;100.00
64354;BME280;50681;53.334;-6.536;2023-01-29T05:51:36;102219.59;;;3.55;100.00
64354;BME280;50681;53.334;-6.536;2023-01-29T05:54:02;102221.00;;;3.58;100.00
64354;BME280;50681;53.334;-6.536;2023-01-29T05:56:27;102208.06;;;3.48;100.00
64354;BME280;50681;53.334;-6.536;2023-01-29T05:58:54;102193.63;;;3.42;100.00
64354;BME280;50681;53.334;-6.536;2023-01-29T06:01:22;102206.63;;;3.52;100.00
64354;BME280;50681;53.334;-6.536;2023-01-29T06:03:48;102210.31;;;3.58;100.00
64354;BME280;50681;53.334;-6.536;2023-01-29T06:06:15;102207.25;;;3.54;100.00
64354;BME280;50681;53.334;-6.536;2023-01-29T06:08:41;102215.09;;;3.62;100.00
64354;BME280;50681;53.334;-6.536;2023-01-29T06:11:11;102198.81;;;3.50;100.00
64354;BME280;50681;53.334;-6.536;2023-01-29T06:13:37;102183.16;;;3.41;100.00
64354;BME280;50681;53.334;-6.536;2023-01-29T06:16:07;102220.00;;;3.59;100.00
64354;BME280;50681;53.334;-6.536;2023-01-29T06:18:33;102218.78;;;3.61;100.00
64354;BME280;50681;53.334;-6.536;2023-01-29T06:21:02;102202.94;;;3.53;100.00
64354;BME280;50681;53.334;-6.536;2023-01-29T06:23:28;102204.19;;;3.57;100.00
64354;BME280;50681;53.334;-6.536;2023-01-29T06:26:09;102194.09;;;3.52;100.00
64354;BME280;50681;53.334;-6.536;2023-01-29T06:28:35;102211.78;;;3.60;100.00
64354;BME280;50681;53.334;-6.536;2023-01-29T06:31:02;102190.78;;;3.50;100.00
64354;BME280;50681;53.334;-6.536;2023-01-29T06:33:28;102191.63;;;3.51;100.00
64354;BME280;50681;53.334;-6.536;2023-01-29T06:35:58;102212.22;;;3.71;100.00
64354;BME280;50681;53.334;-6.536;2023-01-29T06:38:24;102195.75;;;3.60;100.00
64354;BME280;50681;53.334;-6.536;2023-01-29T06:40:51;102206.88;;;3.71;100.00
64354;BME280;50681;53.334;-6.536;2023-01-29T06:43:16;102207.50;;;3.73;100.00
64354;BME280;50681;53.334;-6.536;2023-01-29T06:45:52;102208.53;;;3.78;100.00
64354;BME280;50681;53.334;-6.536;2023-01-29T06:48:18;102209.38;;;3.79;100.00
64354;BME280;50681;53.334;-6.536;2023-01-29T06:50:45;102187.75;;;3.60;100.00
64354;BME280;50681;53.334;-6.536;2023-01-29T06:53:10;102211.63;;;3.82;100.00
64354;BME280;50681;53.334;-6.536;2023-01-29T06:55:36;102204.44;;;3.76;100.00
64354;BME280;50681;53.334;-6.536;2023-01-29T06:58:06;102210.63;;;3.83;100.00
64354;BME280;50681;53.334;-6.536;2023-01-29T07:00:32;102198.25;;;3.75;100.00
64354;BME280;50681;53.334;-6.536;2023-01-29T07:02:57;102179.34;;;3.63;100.00
64354;BME280;50681;53.334;-6.536;2023-01-29T07:05:23;102200.72;;;3.83;100.00
64354;BME280;50681;53.334;-6.536;2023-01-29T07:07:48;102184.91;;;3.75;100.00
64354;BME280;50681;53.334;-6.536;2023-01-29T07:10:14;102196.63;;;3.88;100.00
64354;BME280;50681;53.334;-6.536;2023-01-29T07:12:40;102178.56;;;3.83;100.00
64354;BME280;50681;53.334;-6.536;2023-01-29T07:15:05;102188.22;;;3.91;100.00
64354;BME280;50681;53.334;-6.536;2023-01-29T07:17:31;102172.16;;;3.91;100.00
64354;BME280;50681;53.334;-6.536;2023-01-29T07:19:56;102166.03;;;3.90;100.00
64354;BME280;50681;53.334;-6.536;2023-01-29T07:22:22;102169.50;;;3.84;100.00
64354;BME280;50681;53.334;-6.536;2023-01-29T07:24:47;102170.72;;;3.81;100.00
64354;BME280;50681;53.334;-6.536;2023-01-29T07:27:13;102166.84;;;3.84;100.00
64354;BME280;50681;53.334;-6.536;2023-01-29T07:29:38;102168.28;;;3.93;100.00
64354;BME280;50681;53.334;-6.536;2023-01-29T07:32:04;102173.22;;;3.83;100.00
64354;BME280;50681;53.334;-6.536;2023-01-29T07:34:29;102154.69;;;3.81;100.00
64354;BME280;50681;53.334;-6.536;2023-01-29T07:36:55;102162.53;;;3.83;100.00
64354;BME280;50681;53.334;-6.536;2023-01-29T07:39:21;102157.56;;;3.80;100.00
64354;BME280;50681;53.334;-6.536;2023-01-29T07:41:47;102157.59;;;3.93;100.00
64354;BME280;50681;53.334;-6.536;2023-01-29T07:44:12;102168.50;;;3.99;100.00
64354;BME280;50681;53.334;-6.536;2023-01-29T07:46:37;102152.25;;;3.93;100.00
64354;BME280;50681;53.334;-6.536;2023-01-29T07:49:03;102123.03;;;3.72;100.00
64354;BME280;50681;53.334;-6.536;2023-01-29T07:51:28;102137.63;;;3.82;100.00
64354;BME280;50681;53.334;-6.536;2023-01-29T07:53:54;102139.28;;;3.83;100.00
64354;BME280;50681;53.334;-6.536;2023-01-29T07:56:19;102161.91;;;4.01;100.00
64354;BME280;50681;53.334;-6.536;2023-01-29T07:58:45;102116.47;;;3.88;100.00
64354;BME280;50681;53.334;-6.536;2023-01-29T08:01:10;102119.34;;;3.86;100.00
64354;BME280;50681;53.334;-6.536;2023-01-29T08:03:35;102125.94;;;3.90;100.00
64354;BME280;50681;53.334;-6.536;2023-01-29T08:06:02;102131.69;;;3.87;100.00
64354;BME280;50681;53.334;-6.536;2023-01-29T08:08:28;102160.47;;;3.99;100.00
64354;BME280;50681;53.334;-6.536;2023-01-29T08:10:53;102161.91;;;4.08;100.00
64354;BME280;50681;53.334;-6.536;2023-01-29T08:13:19;102143.41;;;4.00;100.00
64354;BME280;50681;53.334;-6.536;2023-01-29T08:15:44;102159.25;;;4.08;100.00
64354;BME280;50681;53.334;-6.536;2023-01-29T08:18:11;102162.53;;;4.10;100.00
64354;BME280;50681;53.334;-6.536;2023-01-29T08:20:37;102168.69;;;4.10;100.00
64354;BME280;50681;53.334;-6.536;2023-01-29T08:23:09;102142.97;;;3.96;100.00
64354;BME280;50681;53.334;-6.536;2023-01-29T08:25:36;102136.41;;;3.92;100.00
64354;BME280;50681;53.334;-6.536;2023-01-29T08:28:01;102154.72;;;4.08;100.00
64354;BME280;50681;53.334;-6.536;2023-01-29T08:30:29;102149.78;;;4.12;100.00
64354;BME280;50681;53.334;-6.536;2023-01-29T08:32:54;102137.66;;;4.03;100.00
64354;BME280;50681;53.334;-6.536;2023-01-29T08:35:21;102137.88;;;4.08;100.00
64354;BME280;50681;53.334;-6.536;2023-01-29T08:37:54;102146.09;;;4.13;100.00
64354;BME280;50681;53.334;-6.536;2023-01-29T08:40:21;102156.75;;;4.20;100.00
64354;BME280;50681;53.334;-6.536;2023-01-29T08:42:46;102171.97;;;4.26;100.00
64354;BME280;50681;53.334;-6.536;2023-01-29T08:45:12;102166.00;;;4.24;100.00
64354;BME280;50681;53.334;-6.536;2023-01-29T08:47:37;102173.03;;;4.32;100.00
64354;BME280;50681;53.334;-6.536;2023-01-29T08:50:03;102160.25;;;4.27;100.00
64354;BME280;50681;53.334;-6.536;2023-01-29T08:52:28;102146.06;;;4.20;100.00
64354;BME280;50681;53.334;-6.536;2023-01-29T08:54:54;102176.91;;;4.43;100.00
64354;BME280;50681;53.334;-6.536;2023-01-29T08:57:20;102170.75;;;4.42;100.00
64354;BME280;50681;53.334;-6.536;2023-01-29T08:59:46;102163.53;;;4.43;100.00
64354;BME280;50681;53.334;-6.536;2023-01-29T09:02:11;102153.25;;;4.46;100.00
64354;BME280;50681;53.334;-6.536;2023-01-29T09:04:37;102144.22;;;4.27;100.00
64354;BME280;50681;53.334;-6.536;2023-01-29T09:07:02;102135.59;;;4.32;100.00
64354;BME280;50681;53.334;-6.536;2023-01-29T09:09:27;102165.19;;;4.50;100.00
64354;BME280;50681;53.334;-6.536;2023-01-29T09:11:55;102146.66;;;4.35;100.00
64354;BME280;50681;53.334;-6.536;2023-01-29T09:14:21;102130.84;;;4.34;100.00
64354;BME280;50681;53.334;-6.536;2023-01-29T09:16:46;102163.50;;;4.56;100.00
64354;BME280;50681;53.334;-6.536;2023-01-29T09:19:12;102168.88;;;4.63;100.00
64354;BME280;50681;53.334;-6.536;2023-01-29T09:21:37;102169.09;;;4.54;100.00
64354;BME280;50681;53.334;-6.536;2023-01-29T09:24:03;102184.50;;;4.66;100.00
64354;BME280;50681;53.334;-6.536;2023-01-29T09:26:29;102167.84;;;4.64;100.00
64354;BME280;50681;53.334;-6.536;2023-01-29T09:28:55;102177.28;;;4.73;100.00
64354;BME280;50681;53.334;-6.536;2023-01-29T09:31:20;102143.97;;;4.55;100.00
64354;BME280;50681;53.334;-6.536;2023-01-29T09:33:46;102157.97;;;4.58;100.00
64354;BME280;50681;53.334;-6.536;2023-01-29T09:36:11;102155.91;;;4.60;100.00
64354;BME280;50681;53.334;-6.536;2023-01-29T09:38:36;102160.41;;;4.73;100.00
64354;BME280;50681;53.334;-6.536;2023-01-29T09:41:15;102147.66;;;4.61;100.00
64354;BME280;50681;53.334;-6.536;2023-01-29T09:43:48;102184.47;;;4.79;100.00
64354;BME280;50681;53.334;-6.536;2023-01-29T09:46:22;102180.97;;;4.85;100.00
64354;BME280;50681;53.334;-6.536;2023-01-29T09:49:03;102181.38;;;4.82;100.00
64354;BME280;50681;53.334;-6.536;2023-01-29T09:51:40;102155.03;;;4.73;100.00
64354;BME280;50681;53.334;-6.536;2023-01-29T09:54:15;102165.72;;;4.86;100.00
64354;BME280;50681;53.334;-6.536;2023-01-29T09:56:44;102146.41;;;4.77;100.00
64354;BME280;50681;53.334;-6.536;2023-01-29T09:59:11;102148.66;;;4.80;100.00
64354;BME280;50681;53.334;-6.536;2023-01-29T10:14:50;102155.56;;;5.08;100.00
64354;BME280;50681;53.334;-6.536;2023-01-29T10:17:30;102139.50;;;5.08;100.00
64354;BME280;50681;53.334;-6.536;2023-01-29T10:20:25;102134.75;;;5.04;100.00
64354;BME280;50681;53.334;-6.536;2023-01-29T10:25:32;102132.69;;;5.12;100.00
64354;BME280;50681;53.334;-6.536;2023-01-29T10:28:01;102131.81;;;5.19;100.00
64354;BME280;50681;53.334;-6.536;2023-01-29T10:30:28;102134.69;;;5.24;100.00
64354;BME280;50681;53.334;-6.536;2023-01-29T10:32:58;102127.25;;;5.26;100.00
64354;BME280;50681;53.334;-6.536;2023-01-29T10:37:57;102106.22;;;5.29;100.00
64354;BME280;50681;53.334;-6.536;2023-01-29T10:40:33;102135.78;;;5.41;100.00
64354;BME280;50681;53.334;-6.536;2023-01-29T10:57:31;102115.31;;;5.54;100.00
64354;BME280;50681;53.334;-6.536;2023-01-29T11:00:12;102123.19;;;5.49;100.00
64354;BME280;50681;53.334;-6.536;2023-01-29T11:02:47;102096.63;;;5.47;100.00
64354;BME280;50681;53.334;-6.536;2023-01-29T11:08:22;102103.91;;;5.65;100.00
64354;BME280;50681;53.334;-6.536;2023-01-29T11:11:00;102103.03;;;5.71;100.00
64354;BME280;50681;53.334;-6.536;2023-01-29T11:13:39;102078.16;;;5.64;100.00
64354;BME280;50681;53.334;-6.536;2023-01-29T11:16:07;102078.16;;;5.64;100.00
64354;BME280;50681;53.334;-6.536;2023-01-29T11:18:56;102094.13;;;5.78;100.00
64354;BME280;50681;53.334;-6.536;2023-01-29T11:21:23;102081.13;;;5.81;100.00
64354;BME280;50681;53.334;-6.536;2023-01-29T11:23:50;102042.50;;;5.64;100.00
64354;BME280;50681;53.334;-6.536;2023-01-29T11:26:16;102079.41;;;5.87;100.00
64354;BME280;50681;53.334;-6.536;2023-01-29T11:28:47;102047.75;;;5.77;100.00
64354;BME280;50681;53.334;-6.536;2023-01-29T11:31:20;102068.19;;;5.97;100.00
64354;BME280;50681;53.334;-6.536;2023-01-29T11:33:47;102064.09;;;5.94;100.00
64354;BME280;50681;53.334;-6.536;2023-01-29T11:36:20;102032.00;;;5.87;100.00
64354;BME280;50681;53.334;-6.536;2023-01-29T11:38:46;102046.84;;;6.09;100.00
64354;BME280;50681;53.334;-6.536;2023-01-29T11:41:15;102033.84;;;6.12;100.00
64354;BME280;50681;53.334;-6.536;2023-01-29T11:43:46;102041.00;;;6.18;100.00
64354;BME280;50681;53.334;-6.536;2023-01-29T11:46:14;102031.03;;;6.26;100.00
64354;BME280;50681;53.334;-6.536;2023-01-29T11:48:46;102025.13;;;6.36;100.00
64354;BME280;50681;53.334;-6.536;2023-01-29T11:51:27;102019.84;;;6.47;100.00
64354;BME280;50681;53.334;-6.536;2023-01-29T11:54:03;101985.19;;;6.27;100.00
64354;BME280;50681;53.334;-6.536;2023-01-29T11:56:42;101997.69;;;6.52;100.00
64354;BME280;50681;53.334;-6.536;2023-01-29T11:59:30;101965.44;;;6.40;100.00
64354;BME280;50681;53.334;-6.536;2023-01-29T12:02:04;101962.19;;;6.50;100.00
64354;BME280;50681;53.334;-6.536;2023-01-29T12:04:30;101988.53;;;6.72;100.00
64354;BME280;50681;53.334;-6.536;2023-01-29T12:06:55;101978.63;;;6.72;100.00
64354;BME280;50681;53.334;-6.536;2023-01-29T12:09:23;101974.06;;;6.73;100.00
64354;BME280;50681;53.334;-6.536;2023-01-29T12:11:51;101947.69;;;6.70;100.00
64354;BME280;50681;53.334;-6.536;2023-01-29T12:14:31;101941.06;;;6.72;100.00
64354;BME280;50681;53.334;-6.536;2023-01-29T12:17:05;101969.38;;;6.99;100.00
64354;BME280;50681;53.334;-6.536;2023-01-29T12:19:53;101958.09;;;7.09;100.00
64354;BME280;50681;53.334;-6.536;2023-01-29T12:25:15;101942.91;;;7.14;100.00
64354;BME280;50681;53.334;-6.536;2023-01-29T12:28:01;101930.50;;;7.13;100.00
64354;BME280;50681;53.334;-6.536;2023-01-29T12:33:42;101916.41;;;7.30;100.00
64354;BME280;50681;53.334;-6.536;2023-01-29T12:38:44;101899.22;;;7.31;100.00
64354;BME280;50681;53.334;-6.536;2023-01-29T12:41:29;101921.66;;;7.48;100.00
64354;BME280;50681;53.334;-6.536;2023-01-29T12:44:03;101903.91;;;7.47;100.00
64354;BME280;50681;53.334;-6.536;2023-01-29T12:46:42;101881.69;;;7.52;100.00
64354;BME280;50681;53.334;-6.536;2023-01-29T12:49:16;101860.56;;;7.44;100.00
64354;BME280;50681;53.334;-6.536;2023-01-29T12:51:49;101906.88;;;7.87;100.00
64354;BME280;50681;53.334;-6.536;2023-01-29T12:54:22;101882.09;;;7.85;100.00
64354;BME280;50681;53.334;-6.536;2023-01-29T12:56:52;101890.38;;;7.95;100.00
64354;BME280;50681;53.334;-6.536;2023-01-29T12:59:30;101884.28;;;8.00;100.00
64354;BME280;50681;53.334;-6.536;2023-01-29T13:02:04;101851.94;;;7.94;100.00
64354;BME280;50681;53.334;-6.536;2023-01-29T13:04:38;101874.06;;;8.14;100.00
64354;BME280;50681;53.334;-6.536;2023-01-29T13:09:42;101850.75;;;8.19;100.00
64354;BME280;50681;53.334;-6.536;2023-01-29T13:12:15;101843.13;;;8.28;100.00
64354;BME280;50681;53.334;-6.536;2023-01-29T13:17:32;101840.03;;;8.36;100.00
64354;BME280;50681;53.334;-6.536;2023-01-29T13:20:21;101816.69;;;8.25;100.00
64354;BME280;50681;53.334;-6.536;2023-01-29T13:22:48;101838.41;;;8.35;100.00
64354;BME280;50681;53.334;-6.536;2023-01-29T13:25:16;101843.50;;;8.49;100.00
64354;BME280;50681;53.334;-6.536;2023-01-29T13:27:42;101836.94;;;8.45;100.00
64354;BME280;50681;53.334;-6.536;2023-01-29T13:30:24;101811.41;;;8.30;100.00
64354;BME280;50681;53.334;-6.536;2023-01-29T13:32:54;101826.00;;;8.34;100.00
64354;BME280;50681;53.334;-6.536;2023-01-29T13:35:39;101825.69;;;8.48;100.00
64354;BME280;50681;53.334;-6.536;2023-01-29T13:38:19;101835.03;;;8.57;100.00
64354;BME280;50681;53.334;-6.536;2023-01-29T13:40:50;101810.22;;;8.55;100.00
64354;BME280;50681;53.334;-6.536;2023-01-29T13:43:20;101799.72;;;8.71;100.00
64354;BME280;50681;53.334;-6.536;2023-01-29T13:45:47;101787.63;;;8.73;100.00
64354;BME280;50681;53.334;-6.536;2023-01-29T13:48:29;101785.25;;;8.77;100.00
64354;BME280;50681;53.334;-6.536;2023-01-29T13:51:02;101773.50;;;8.83;100.00
64354;BME280;50681;53.334;-6.536;2023-01-29T13:53:37;101747.50;;;8.72;100.00
64354;BME280;50681;53.334;-6.536;2023-01-29T13:56:29;101768.13;;;8.83;100.00
64354;BME280;50681;53.334;-6.536;2023-01-29T13:59:08;101763.31;;;8.85;100.00
64354;BME280;50681;53.334;-6.536;2023-01-29T14:06:59;101745.44;;;8.79;100.00
64354;BME280;50681;53.334;-6.536;2023-01-29T14:12:03;101694.34;;;8.84;100.00
64354;BME280;50681;53.334;-6.536;2023-01-29T14:17:13;101712.56;;;8.99;100.00
64354;BME280;50681;53.334;-6.536;2023-01-29T14:19:51;101653.44;;;8.87;100.00
64354;BME280;50681;53.334;-6.536;2023-01-29T14:22:26;101680.06;;;9.06;100.00
64354;BME280;50681;53.334;-6.536;2023-01-29T14:24:55;101652.28;;;9.05;100.00
64354;BME280;50681;53.334;-6.536;2023-01-29T14:27:23;101673.69;;;9.12;100.00
64354;BME280;50681;53.334;-6.536;2023-01-29T14:29:58;101660.63;;;9.26;100.00
64354;BME280;50681;53.334;-6.536;2023-01-29T14:32:25;101659.94;;;9.36;100.00
64354;BME280;50681;53.334;-6.536;2023-01-29T14:37:48;101646.94;;;9.33;100.00
64354;BME280;50681;53.334;-6.536;2023-01-29T14:43:04;101661.06;;;9.18;100.00
64354;BME280;50681;53.334;-6.536;2023-01-29T14:45:39;101658.56;;;9.11;100.00
64354;BME280;50681;53.334;-6.536;2023-01-29T14:50:41;101655.75;;;9.01;100.00
64354;BME280;50681;53.334;-6.536;2023-01-29T14:53:21;101649.25;;;8.96;100.00
64354;BME280;50681;53.334;-6.536;2023-01-29T15:01:11;101660.13;;;8.85;100.00
64354;BME280;50681;53.334;-6.536;2023-01-29T15:03:48;101658.69;;;8.77;100.00